Time;durP1;ratioP1;P1;durP2;ratioP2;P2;SDS_P1;SDS_P2;PMS_P1;PMS_P2;Temp;Humidity;BMP_temperature;BMP_pressure;BME280_temperature;BME280_humidity;BME280_pressure;Samples;Min_cycle;Max_cycle;Signal;HPM_P1;HPM_P2
2022/05/05 00:02:14;;;;;;;;;;;11.70;99.90;;;;;;5126280;28;19920;-69
2022/05/05 00:04:40;;;;;;;;;;;11.60;99.90;;;;;;5125768;28;19927;-68
2022/05/05 00:07:07;;;;;;;;;;;11.50;99.90;;;;;;5125441;28;19924;-69
2022/05/05 00:09:33;;;;;;;;;;;11.50;99.90;;;;;;5125689;28;20202;-69
2022/05/05 00:14:45;;;;;;;;;;;11.40;99.90;;;;;;5125700;28;19927;-69
2022/05/05 00:17:12;;;;;;;;;;;11.50;99.90;;;;;;5125479;28;19920;-69
2022/05/05 00:19:40;;;;;;;;;;;11.40;99.90;;;;;;5125661;28;20100;-69
2022/05/05 00:22:07;;;;;;;;;;;11.50;99.90;;;;;;5125566;28;19920;-69
2022/05/05 00:24:34;;;;;;;;;;;11.50;99.90;;;;;;5125346;28;19920;-69
2022/05/05 00:27:02;;;;;;;;;;;11.50;99.90;;;;;;5125536;28;20002;-69
2022/05/05 00:29:28;;;;;;;;;;;11.50;99.90;;;;;;5125401;28;19926;-69
2022/05/05 00:31:55;;;;;;;;;;;11.60;99.90;;;;;;5125338;28;19920;-69
2022/05/05 00:34:21;;;;;;;;;;;11.50;99.90;;;;;;5125316;28;20153;-69
2022/05/05 00:36:48;;;;;;;;;;;11.50;99.90;;;;;;5124824;28;19926;-69
2022/05/05 00:39:14;;;;;;;;;;;11.50;99.90;;;;;;5125031;28;19990;-69
2022/05/05 00:41:42;;;;;;;;;;;11.50;99.90;;;;;;5124949;28;19934;-69
2022/05/05 00:44:11;;;;;;;;;;;11.50;99.90;;;;;;5124673;28;19920;-69
2022/05/05 00:46:38;;;;;;;;;;;11.60;99.90;;;;;;5124787;28;19991;-69
2022/05/05 00:49:05;;;;;;;;;;;11.50;99.90;;;;;;5124972;28;20336;-69
2022/05/05 00:51:31;;;;;;;;;;;11.50;99.90;;;;;;5124729;28;19926;-69
2022/05/05 00:53:58;;;;;;;;;;;11.50;99.90;;;;;;5124682;28;19920;-69
2022/05/05 00:56:25;;;;;;;;;;;11.50;99.90;;;;;;5124634;28;19920;-69
2022/05/05 00:58:53;;;;;;;;;;;11.50;99.90;;;;;;5124897;28;19926;-69
2022/05/05 01:01:22;;;;;;;;;;;11.50;99.90;;;;;;5124728;28;19920;-69
2022/05/05 01:03:49;;;;;;;;;;;11.60;99.90;;;;;;5124771;28;19934;-69
2022/05/05 01:06:16;;;;;;;;;;;11.50;99.90;;;;;;5124078;28;19926;-68
2022/05/05 01:08:43;;;;;;;;;;;11.60;99.90;;;;;;5124313;28;20225;-69
2022/05/05 01:11:10;;;;;;;;;;;11.60;99.90;;;;;;5125101;28;19919;-69
2022/05/05 01:13:38;;;;;;;;;;;11.70;99.90;;;;;;5125709;28;19919;-69
2022/05/05 01:16:05;;;;;;;;;;;11.60;99.90;;;;;;5125187;28;19926;-69
2022/05/05 01:18:33;;;;;;;;;;;11.60;99.90;;;;;;5125775;28;19919;-69
2022/05/05 01:21:00;;;;;;;;;;;11.70;99.90;;;;;;5124439;28;19926;-69
2022/05/05 01:23:28;;;;;;;;;;;11.60;99.90;;;;;;5124487;28;19926;-69
2022/05/05 01:28:40;;;;;;;;;;;11.60;99.90;;;;;;5102933;28;19938;-69
2022/05/05 01:31:07;;;;;;;;;;;11.60;99.90;;;;;;5124269;28;19920;-69
2022/05/05 01:33:34;;;;;;;;;;;11.60;99.90;;;;;;5123994;28;19987;-69
2022/05/05 01:36:01;;;;;;;;;;;11.60;99.90;;;;;;5123767;28;19983;-69
2022/05/05 01:38:35;;;;;;;;;;;11.60;99.90;;;;;;5124235;28;20138;-68
2022/05/05 01:41:02;;;;;;;;;;;11.50;99.90;;;;;;5124088;28;20265;-69
2022/05/05 01:43:29;;;;;;;;;;;11.60;99.90;;;;;;5123500;28;19926;-69
2022/05/05 01:45:55;;;;;;;;;;;11.60;99.90;;;;;;5123478;28;19926;-69
2022/05/05 01:48:22;;;;;;;;;;;11.60;99.90;;;;;;5123905;28;19923;-69
2022/05/05 01:50:49;;;;;;;;;;;11.70;99.90;;;;;;5124119;28;19920;-69
2022/05/05 01:53:16;;;;;;;;;;;11.60;99.90;;;;;;5123840;28;19919;-69
2022/05/05 01:55:44;;;;;;;;;;;11.60;99.90;;;;;;5123984;28;19926;-69
2022/05/05 01:58:11;;;;;;;;;;;11.70;99.90;;;;;;5123860;28;19920;-69
2022/05/05 02:00:38;;;;;;;;;;;11.70;99.90;;;;;;5123700;28;19920;-69
2022/05/05 02:03:12;;;;;;;;;;;11.60;99.90;;;;;;5124063;28;19941;-68
2022/05/05 02:05:39;;;;;;;;;;;11.70;99.90;;;;;;5123786;28;19927;-68
2022/05/05 02:08:06;;;;;;;;;;;11.60;99.90;;;;;;5123899;28;19983;-69
2022/05/05 02:10:32;;;;;;;;;;;11.60;99.90;;;;;;5123597;28;19920;-69
2022/05/05 02:13:00;;;;;;;;;;;11.60;99.90;;;;;;5123606;28;20222;-69
2022/05/05 02:15:27;;;;;;;;;;;11.60;99.90;;;;;;5123569;28;19942;-69
2022/05/05 02:17:53;;;;;;;;;;;11.60;99.90;;;;;;5124115;28;19957;-69
2022/05/05 02:20:20;;;;;;;;;;;11.60;99.90;;;;;;5127984;28;19920;-69
2022/05/05 02:22:47;;;;;;;;;;;11.60;99.90;;;;;;5127929;28;19920;-69
2022/05/05 02:25:13;;;;;;;;;;;11.60;99.90;;;;;;5127536;28;19926;-68
2022/05/05 02:27:50;;;;;;;;;;;11.60;99.90;;;;;;5128123;28;19920;-69
2022/05/05 02:30:19;;;;;;;;;;;11.60;99.90;;;;;;5128088;28;19920;-68
2022/05/05 02:32:45;;;;;;;;;;;11.60;99.90;;;;;;5127761;28;19993;-69
2022/05/05 02:35:12;;;;;;;;;;;11.60;99.90;;;;;;5127206;28;19919;-69
2022/05/05 02:40:23;;;;;;;;;;;11.60;99.90;;;;;;5127497;28;19991;-69
2022/05/05 02:42:49;;;;;;;;;;;11.60;99.90;;;;;;5127142;28;19920;-69
2022/05/05 02:45:18;;;;;;;;;;;11.60;99.90;;;;;;5127310;28;19920;-69
2022/05/05 02:47:45;;;;;;;;;;;11.60;99.90;;;;;;5127321;28;19920;-69
2022/05/05 02:50:11;;;;;;;;;;;11.60;99.90;;;;;;5127250;28;19919;-69
2022/05/05 02:52:38;;;;;;;;;;;11.60;99.90;;;;;;5127200;28;19920;-69
2022/05/05 02:55:04;;;;;;;;;;;11.60;99.90;;;;;;5127470;28;19919;-69
2022/05/05 02:57:31;;;;;;;;;;;11.60;99.90;;;;;;5127102;28;20115;-69
2022/05/05 02:59:58;;;;;;;;;;;11.70;99.90;;;;;;5127034;28;19920;-69
2022/05/05 03:02:26;;;;;;;;;;;11.60;99.90;;;;;;5127161;28;19957;-69
2022/05/05 03:04:53;;;;;;;;;;;11.60;99.90;;;;;;5126872;28;20229;-69
2022/05/05 03:07:20;;;;;;;;;;;11.60;99.90;;;;;;5126483;28;19927;-69
2022/05/05 03:09:47;;;;;;;;;;;11.60;99.90;;;;;;5127081;28;19962;-69
2022/05/05 03:12:13;;;;;;;;;;;11.50;99.90;;;;;;5126782;28;20249;-69
2022/05/05 03:14:40;;;;;;;;;;;11.50;99.90;;;;;;5126690;28;20234;-69
2022/05/05 03:17:06;;;;;;;;;;;11.50;99.90;;;;;;5126376;28;20233;-68
2022/05/05 03:19:34;;;;;;;;;;;11.40;99.90;;;;;;5126722;28;19926;-69
2022/05/05 03:22:01;;;;;;;;;;;11.40;99.90;;;;;;5126767;28;19928;-69
2022/05/05 03:24:27;;;;;;;;;;;11.40;99.90;;;;;;5126690;28;19926;-69
2022/05/05 03:26:54;;;;;;;;;;;11.40;99.90;;;;;;5126423;28;19927;-69
2022/05/05 03:29:21;;;;;;;;;;;11.40;99.90;;;;;;5126260;28;19920;-69
2022/05/05 03:31:47;;;;;;;;;;;11.40;99.90;;;;;;5126024;28;19926;-69
2022/05/05 03:34:14;;;;;;;;;;;11.30;99.90;;;;;;5126279;28;19926;-69
2022/05/05 03:36:42;;;;;;;;;;;11.30;99.90;;;;;;5125916;28;19924;-69
2022/05/05 03:39:08;;;;;;;;;;;11.20;99.90;;;;;;5126289;28;19920;-69
2022/05/05 03:41:35;;;;;;;;;;;11.20;99.90;;;;;;5126360;28;19923;-69
2022/05/05 03:44:03;;;;;;;;;;;11.10;99.90;;;;;;5126306;28;19919;-69
2022/05/05 03:46:30;;;;;;;;;;;11.10;99.90;;;;;;5125832;28;19926;-68
2022/05/05 03:48:57;;;;;;;;;;;11.10;99.90;;;;;;5125960;28;20211;-69
2022/05/05 03:51:23;;;;;;;;;;;11.00;99.90;;;;;;5126355;28;19955;-69
2022/05/05 03:53:51;;;;;;;;;;;11.00;99.90;;;;;;5126245;28;19926;-69
2022/05/05 03:56:18;;;;;;;;;;;10.90;99.90;;;;;;5125653;28;19927;-69
2022/05/05 03:58:44;;;;;;;;;;;10.90;99.90;;;;;;5125975;28;19920;-69
2022/05/05 04:01:11;;;;;;;;;;;10.90;99.90;;;;;;5125837;28;19920;-69
2022/05/05 04:03:43;;;;;;;;;;;10.90;99.90;;;;;;5125746;28;19920;-69
2022/05/05 04:06:10;;;;;;;;;;;10.90;99.90;;;;;;5123408;28;20116;-69
2022/05/05 04:08:37;;;;;;;;;;;10.90;99.90;;;;;;5117440;28;19983;-69
2022/05/05 04:11:07;;;;;;;;;;;10.90;99.90;;;;;;5107066;22;19955;-68
2022/05/05 04:13:33;;;;;;;;;;;10.90;99.90;;;;;;5075143;28;19920;-69
2022/05/05 04:16:00;;;;;;;;;;;10.80;99.90;;;;;;5082073;28;19927;-68
2022/05/05 04:18:26;;;;;;;;;;;10.80;99.90;;;;;;5085160;28;19986;-68
2022/05/05 04:20:53;;;;;;;;;;;10.90;99.90;;;;;;5081040;28;19943;-64
2022/05/05 04:23:20;;;;;;;;;;;10.80;99.90;;;;;;5065085;28;19927;-67
2022/05/05 04:25:47;;;;;;;;;;;10.80;99.90;;;;;;5064731;28;19921;-66
2022/05/05 04:28:15;;;;;;;;;;;10.80;99.90;;;;;;5064907;28;19920;-68
2022/05/05 04:30:42;;;;;;;;;;;10.80;99.90;;;;;;5063017;28;19927;-68
2022/05/05 04:33:09;;;;;;;;;;;10.80;99.90;;;;;;5075330;28;19932;-69
2022/05/05 04:35:35;;;;;;;;;;;10.80;99.90;;;;;;5084663;28;19921;-68
2022/05/05 04:38:02;;;;;;;;;;;10.80;99.90;;;;;;5084718;28;19921;-68
2022/05/05 04:40:29;;;;;;;;;;;10.80;99.90;;;;;;5070903;28;19921;-69
2022/05/05 04:42:57;;;;;;;;;;;10.80;99.90;;;;;;5064082;28;19947;-69
2022/05/05 04:45:24;;;;;;;;;;;10.80;99.90;;;;;;5064749;28;19928;-68
2022/05/05 04:47:51;;;;;;;;;;;10.80;99.90;;;;;;5064615;28;19920;-68
2022/05/05 04:50:18;;;;;;;;;;;10.90;99.90;;;;;;5064734;28;19943;-68
2022/05/05 04:52:46;;;;;;;;;;;10.90;99.90;;;;;;5064148;28;19920;-69
2022/05/05 04:55:13;;;;;;;;;;;10.80;99.90;;;;;;5064360;28;19927;-68
2022/05/05 04:57:39;;;;;;;;;;;10.70;99.90;;;;;;5064129;28;20267;-68
2022/05/05 05:00:06;;;;;;;;;;;10.70;99.90;;;;;;5064468;28;19928;-69
2022/05/05 05:02:34;;;;;;;;;;;10.70;99.90;;;;;;5064144;28;19920;-69
2022/05/05 05:05:01;;;;;;;;;;;10.60;99.90;;;;;;5064236;28;19921;-68
2022/05/05 05:07:28;;;;;;;;;;;10.60;99.90;;;;;;5063893;28;19959;-67
2022/05/05 05:09:57;;;;;;;;;;;10.60;99.90;;;;;;5051152;28;19928;-67
2022/05/05 05:12:24;;;;;;;;;;;10.50;99.90;;;;;;5043831;28;19967;-67
2022/05/05 05:14:50;;;;;;;;;;;10.60;99.90;;;;;;5043728;28;19928;-66
2022/05/05 05:17:17;;;;;;;;;;;10.60;99.90;;;;;;5043764;28;20128;-66
2022/05/05 05:19:45;;;;;;;;;;;10.60;99.90;;;;;;5042971;28;19944;-66
2022/05/05 05:22:11;;;;;;;;;;;10.60;99.90;;;;;;5043791;28;19925;-66
2022/05/05 05:24:38;;;;;;;;;;;10.60;99.90;;;;;;5043842;28;19928;-66
2022/05/05 05:27:05;;;;;;;;;;;10.70;99.90;;;;;;5042809;28;19921;-66
2022/05/05 05:29:32;;;;;;;;;;;10.70;99.90;;;;;;5043671;28;19921;-67
2022/05/05 05:31:58;;;;;;;;;;;10.70;99.90;;;;;;5043683;28;20148;-68
2022/05/05 05:34:25;;;;;;;;;;;10.70;99.90;;;;;;5043838;28;19925;-66
2022/05/05 05:36:53;;;;;;;;;;;10.70;99.90;;;;;;5046159;28;20176;-68
2022/05/05 05:39:19;;;;;;;;;;;10.80;99.90;;;;;;5063568;28;19927;-68
2022/05/05 05:41:46;;;;;;;;;;;10.90;99.90;;;;;;5063876;28;19921;-68
2022/05/05 05:44:12;;;;;;;;;;;10.90;99.90;;;;;;5063640;28;19983;-68
2022/05/05 05:46:41;;;;;;;;;;;11.00;99.90;;;;;;5062923;28;19927;-68
2022/05/05 05:49:09;;;;;;;;;;;11.00;99.90;;;;;;5063702;28;19928;-68
2022/05/05 05:51:36;;;;;;;;;;;11.10;99.90;;;;;;5058705;28;20147;-70
2022/05/05 05:54:04;;;;;;;;;;;11.10;99.90;;;;;;5063158;28;19927;-68
2022/05/05 05:56:31;;;;;;;;;;;11.20;99.90;;;;;;5063401;28;20059;-68
2022/05/05 05:58:57;;;;;;;;;;;11.20;99.90;;;;;;5063604;28;19966;-68
2022/05/05 06:03:53;;;;;;;;;;;11.20;99.90;;;;;;5063225;28;19921;-68
2022/05/05 06:04:09;;;;;;;;;;;11.20;99.90;;;;;;5043175;28;19928;-68
2022/05/05 06:06:38;;;;;;;;;;;11.30;99.90;;;;;;5043127;28;19917;-68
2022/05/05 06:09:06;;;;;;;;;;;11.30;99.90;;;;;;5043746;28;19921;-68
2022/05/05 06:11:32;;;;;;;;;;;11.40;99.90;;;;;;5053248;28;19928;-68
2022/05/05 06:13:59;;;;;;;;;;;11.40;99.90;;;;;;5063617;28;19920;-68
2022/05/05 06:16:27;;;;;;;;;;;11.50;99.90;;;;;;5063252;28;19924;-68
2022/05/05 06:18:54;;;;;;;;;;;11.50;99.90;;;;;;5063040;28;19921;-68
2022/05/05 06:21:20;;;;;;;;;;;11.50;99.90;;;;;;5063344;28;19987;-68
2022/05/05 06:23:47;;;;;;;;;;;11.60;99.90;;;;;;5062841;28;20242;-68
2022/05/05 06:26:15;;;;;;;;;;;11.70;99.90;;;;;;5061841;28;19995;-68
2022/05/05 06:28:43;;;;;;;;;;;11.70;99.90;;;;;;5062833;28;19921;-68
2022/05/05 06:31:11;;;;;;;;;;;11.70;99.90;;;;;;5062843;28;19952;-68
2022/05/05 06:33:38;;;;;;;;;;;11.80;99.90;;;;;;5062738;28;20200;-68
2022/05/05 06:36:04;;;;;;;;;;;11.80;99.90;;;;;;5062589;28;19993;-68
2022/05/05 06:38:32;;;;;;;;;;;11.90;99.90;;;;;;5062600;28;20200;-68
2022/05/05 06:40:59;;;;;;;;;;;12.00;99.90;;;;;;5054352;28;19948;-67
2022/05/05 06:43:27;;;;;;;;;;;12.10;99.90;;;;;;5060574;28;19927;-68
2022/05/05 06:45:53;;;;;;;;;;;12.20;99.90;;;;;;5062111;28;19921;-68
2022/05/05 06:48:20;;;;;;;;;;;12.30;99.90;;;;;;5062665;28;19929;-69
2022/05/05 06:50:46;;;;;;;;;;;12.30;99.90;;;;;;5062695;28;19921;-68
2022/05/05 06:53:13;;;;;;;;;;;12.40;99.90;;;;;;5062605;28;19921;-67
2022/05/05 06:55:39;;;;;;;;;;;12.50;99.90;;;;;;5062194;28;19921;-68
2022/05/05 06:58:06;;;;;;;;;;;12.50;99.90;;;;;;5062475;28;19920;-69
2022/05/05 07:03:15;;;;;;;;;;;12.70;99.90;;;;;;5060521;28;19951;-68
2022/05/05 07:05:40;;;;;;;;;;;12.80;99.90;;;;;;5062950;28;19927;-68
2022/05/05 07:08:07;;;;;;;;;;;12.90;99.90;;;;;;5066324;28;20181;-68
2022/05/05 07:10:54;;;;;;;;;;;13.00;99.90;;;;;;5065898;28;20223;-67
2022/05/05 07:13:21;;;;;;;;;;;13.10;99.90;;;;;;5066154;28;20184;-69
2022/05/05 07:15:49;;;;;;;;;;;13.10;99.90;;;;;;5065909;28;20116;-68
2022/05/05 07:18:15;;;;;;;;;;;13.20;99.90;;;;;;5065883;28;20231;-68
2022/05/05 07:20:42;;;;;;;;;;;13.30;99.90;;;;;;5065825;28;20118;-67
2022/05/05 07:23:12;;;;;;;;;;;13.40;99.90;;;;;;5065935;28;19967;-68
2022/05/05 07:25:39;;;;;;;;;;;13.40;99.90;;;;;;5065337;28;19920;-69
2022/05/05 07:28:06;;;;;;;;;;;13.50;99.90;;;;;;5065046;28;19920;-68
2022/05/05 07:30:33;;;;;;;;;;;13.60;99.90;;;;;;5065741;28;19928;-68
2022/05/05 07:33:01;;;;;;;;;;;13.70;99.90;;;;;;5065811;28;19956;-68
2022/05/05 07:35:27;;;;;;;;;;;13.70;99.90;;;;;;5065480;28;19929;-68
2022/05/05 07:37:54;;;;;;;;;;;13.80;99.90;;;;;;5065383;28;19927;-68
2022/05/05 07:40:21;;;;;;;;;;;13.80;99.90;;;;;;5065305;28;19921;-68
2022/05/05 07:42:47;;;;;;;;;;;13.90;99.90;;;;;;5065580;28;19921;-68
2022/05/05 07:45:14;;;;;;;;;;;13.90;99.90;;;;;;5065456;28;19920;-68
2022/05/05 07:47:40;;;;;;;;;;;14.00;99.90;;;;;;5065412;28;19921;-68
2022/05/05 07:50:09;;;;;;;;;;;14.10;99.90;;;;;;5065765;28;19928;-68
2022/05/05 07:52:35;;;;;;;;;;;14.10;99.90;;;;;;5065783;28;20216;-68
2022/05/05 07:55:02;;;;;;;;;;;14.20;99.90;;;;;;5061813;28;19988;-68
2022/05/05 07:57:29;;;;;;;;;;;14.30;99.90;;;;;;5064949;28;20143;-67
2022/05/05 07:59:56;;;;;;;;;;;14.30;99.90;;;;;;5065335;28;19921;-68
2022/05/05 08:02:23;;;;;;;;;;;14.40;99.90;;;;;;5065201;28;19925;-68
2022/05/05 08:04:49;;;;;;;;;;;14.60;99.90;;;;;;5065002;28;19927;-68
2022/05/05 08:07:17;;;;;;;;;;;14.60;99.90;;;;;;5063892;28;20143;-67
2022/05/05 08:09:44;;;;;;;;;;;14.60;99.90;;;;;;5065456;28;20192;-69
2022/05/05 08:12:11;;;;;;;;;;;14.70;99.90;;;;;;5064777;28;19921;-68
2022/05/05 08:14:37;;;;;;;;;;;14.80;99.90;;;;;;5064921;28;19921;-68
2022/05/05 08:17:04;;;;;;;;;;;14.80;99.90;;;;;;5063367;28;20112;-67
2022/05/05 08:19:31;;;;;;;;;;;14.80;99.90;;;;;;5064826;28;19927;-68
2022/05/05 08:21:58;;;;;;;;;;;14.90;99.90;;;;;;5064515;28;19927;-68
2022/05/05 08:29:54;;;;;;;;;;;15.10;99.90;;;;;;5064704;28;19939;-68
2022/05/05 08:32:20;;;;;;;;;;;15.10;99.90;;;;;;5064408;28;19983;-67
2022/05/05 08:34:47;;;;;;;;;;;15.20;99.90;;;;;;5064610;28;19963;-68
2022/05/05 08:37:13;;;;;;;;;;;15.20;99.90;;;;;;5064292;28;19927;-68
2022/05/05 08:39:42;;;;;;;;;;;15.20;99.90;;;;;;5063910;28;19927;-68
2022/05/05 08:42:08;;;;;;;;;;;15.30;99.90;;;;;;5045621;28;19921;-68
2022/05/05 08:44:35;;;;;;;;;;;15.30;99.90;;;;;;5045252;28;19921;-68
2022/05/05 08:47:02;;;;;;;;;;;15.40;99.90;;;;;;5063819;28;20201;-68
2022/05/05 08:49:30;;;;;;;;;;;15.50;99.90;;;;;;5064324;28;19927;-68
2022/05/05 08:52:00;;;;;;;;;;;15.40;99.90;;;;;;5064350;28;19921;-68
2022/05/05 08:54:30;;;;;;;;;;;15.50;99.90;;;;;;5064153;28;19927;-67
2022/05/05 08:56:58;;;;;;;;;;;15.50;99.90;;;;;;5063796;28;19921;-68
2022/05/05 08:59:25;;;;;;;;;;;15.50;99.90;;;;;;5063706;28;19974;-68
2022/05/05 09:01:52;;;;;;;;;;;15.50;99.90;;;;;;5064145;28;19924;-68
2022/05/05 09:04:20;;;;;;;;;;;15.60;99.90;;;;;;5064014;28;19921;-68
2022/05/05 09:06:48;;;;;;;;;;;15.70;99.90;;;;;;5063805;28;19947;-68
2022/05/05 09:09:24;;;;;;;;;;;15.70;99.90;;;;;;5063801;28;19920;-68
2022/05/05 09:12:10;;;;;;;;;;;15.60;99.90;;;;;;5063407;28;19927;-68
2022/05/05 09:14:37;;;;;;;;;;;15.60;99.90;;;;;;5063831;28;19921;-68
2022/05/05 09:17:06;;;;;;;;;;;15.70;99.90;;;;;;5063052;28;19921;-68
2022/05/05 09:19:35;;;;;;;;;;;15.70;99.90;;;;;;5063432;28;19920;-68
2022/05/05 09:22:02;;;;;;;;;;;15.80;99.90;;;;;;5063656;28;19927;-69
2022/05/05 09:24:40;;;;;;;;;;;15.90;99.90;;;;;;5063299;28;19921;-68
2022/05/05 09:27:23;;;;;;;;;;;16.00;99.90;;;;;;5062179;28;20224;-68
2022/05/05 09:30:02;;;;;;;;;;;16.10;99.90;;;;;;5063727;28;19920;-68
2022/05/05 09:32:29;;;;;;;;;;;16.20;99.90;;;;;;5057217;28;19921;-68
2022/05/05 09:34:59;;;;;;;;;;;16.30;99.90;;;;;;5063533;28;19920;-68
2022/05/05 09:37:26;;;;;;;;;;;16.30;99.90;;;;;;5062332;28;19929;-69
2022/05/05 09:39:56;;;;;;;;;;;16.30;99.90;;;;;;5063226;28;20216;-69
2022/05/05 09:42:37;;;;;;;;;;;16.50;99.90;;;;;;5063237;28;20212;-69
2022/05/05 09:45:18;;;;;;;;;;;16.50;99.90;;;;;;5063040;28;19928;-68
2022/05/05 09:47:45;;;;;;;;;;;16.60;99.90;;;;;;5063677;28;19933;-69
2022/05/05 09:50:13;;;;;;;;;;;16.60;99.90;;;;;;5062565;28;19921;-68
2022/05/05 09:58:28;;;;;;;;;;;16.70;99.90;;;;;;5021553;28;19921;-68
2022/05/05 10:00:59;;;;;;;;;;;16.90;99.90;;;;;;5020873;28;20205;-69
2022/05/05 10:06:16;;;;;;;;;;;17.10;99.90;;;;;;5062863;28;20188;-69
2022/05/05 10:08:45;;;;;;;;;;;17.20;99.90;;;;;;5063244;28;19929;-68
2022/05/05 10:11:14;;;;;;;;;;;17.30;99.90;;;;;;5063463;28;20120;-68
2022/05/05 10:13:42;;;;;;;;;;;17.30;99.90;;;;;;5062974;28;20002;-68
2022/05/05 10:16:10;;;;;;;;;;;17.30;99.90;;;;;;5062079;28;19921;-64
2022/05/05 10:18:38;;;;;;;;;;;17.30;99.90;;;;;;5063043;28;19927;-65
2022/05/05 10:21:05;;;;;;;;;;;17.30;99.90;;;;;;5063239;28;19921;-66
2022/05/05 10:23:39;;;;;;;;;;;17.40;99.90;;;;;;5063004;28;19928;-66
2022/05/05 10:26:06;;;;;;;;;;;17.40;99.90;;;;;;5062974;28;19927;-66
2022/05/05 10:28:47;;;;;;;;;;;17.40;99.90;;;;;;5062906;28;20089;-66
2022/05/05 10:31:35;;;;;;;;;;;17.40;99.90;;;;;;5063119;28;19971;-66
2022/05/05 10:34:02;;;;;;;;;;;17.40;99.90;;;;;;5062830;28;19925;-66
2022/05/05 10:36:30;;;;;;;;;;;17.50;99.90;;;;;;5062805;28;19927;-66
2022/05/05 10:38:57;;;;;;;;;;;17.60;99.90;;;;;;5063130;28;19921;-66
2022/05/05 10:41:37;;;;;;;;;;;17.70;99.90;;;;;;5066694;28;20230;-66
2022/05/05 10:44:19;;;;;;;;;;;17.90;99.90;;;;;;5066654;28;19931;-66
2022/05/05 10:47:03;;;;;;;;;;;18.00;99.90;;;;;;5064695;28;20093;-66
2022/05/05 10:49:47;;;;;;;;;;;18.20;99.90;;;;;;5062785;28;19921;-67
2022/05/05 10:52:30;;;;;;;;;;;18.30;99.90;;;;;;5066670;28;19959;-66
2022/05/05 10:54:57;;;;;;;;;;;18.30;99.90;;;;;;5066889;28;19921;-66
2022/05/05 10:57:42;;;;;;;;;;;18.20;99.90;;;;;;5066528;28;19920;-65
2022/05/05 11:00:10;;;;;;;;;;;18.20;99.90;;;;;;5066500;28;19991;-66
2022/05/05 11:02:37;;;;;;;;;;;18.10;99.90;;;;;;5066279;28;19921;-66
2022/05/05 11:05:24;;;;;;;;;;;18.00;99.90;;;;;;5066459;28;19983;-65
2022/05/05 11:07:51;;;;;;;;;;;18.00;99.90;;;;;;5065907;28;20215;-66
2022/05/05 11:10:48;;;;;;;;;;;17.90;99.90;;;;;;5065524;28;19928;-66
2022/05/05 11:13:35;;;;;;;;;;;18.00;99.90;;;;;;5044070;28;19921;-66
2022/05/05 11:22:04;;;;;;;;;;;17.80;99.90;;;;;;5066266;28;19983;-66
2022/05/05 11:24:30;;;;;;;;;;;17.80;99.90;;;;;;5065990;28;20116;-65
2022/05/05 11:26:59;;;;;;;;;;;17.80;99.90;;;;;;5065258;28;19925;-66
2022/05/05 11:29:28;;;;;;;;;;;17.90;99.90;;;;;;5066197;28;20204;-66
2022/05/05 11:31:58;;;;;;;;;;;18.00;99.90;;;;;;5066113;28;19920;-65
2022/05/05 11:34:30;;;;;;;;;;;18.10;99.90;;;;;;5065796;28;19921;-67
2022/05/05 11:37:00;;;;;;;;;;;18.20;99.90;;;;;;5065835;28;19992;-65
2022/05/05 11:39:27;;;;;;;;;;;18.30;99.90;;;;;;5065905;28;19999;-65
2022/05/05 11:41:58;;;;;;;;;;;18.30;99.90;;;;;;5065841;28;19927;-65
2022/05/05 11:44:25;;;;;;;;;;;18.40;99.90;;;;;;5064882;28;20226;-68
2022/05/05 11:46:53;;;;;;;;;;;18.50;99.90;;;;;;5065376;28;19928;-65
2022/05/05 11:49:20;;;;;;;;;;;18.70;99.90;;;;;;5065457;28;19921;-66
2022/05/05 11:51:46;;;;;;;;;;;18.90;99.90;;;;;;5064752;28;19925;-65
2022/05/05 11:54:16;;;;;;;;;;;19.00;99.90;;;;;;5065633;28;19921;-65
2022/05/05 11:56:46;;;;;;;;;;;19.20;99.90;;;;;;5064882;28;19920;-65
2022/05/05 12:02:04;;;;;;;;;;;19.30;99.90;;;;;;5065247;28;19931;-65
2022/05/05 12:04:31;;;;;;;;;;;19.40;99.90;;;;;;5065498;28;19925;-66
2022/05/05 12:06:58;;;;;;;;;;;19.50;99.90;;;;;;5065044;28;19935;-66
2022/05/05 12:09:26;;;;;;;;;;;19.50;99.90;;;;;;5065377;28;20097;-66
2022/05/05 12:11:53;;;;;;;;;;;19.50;99.90;;;;;;5064972;28;19921;-65
2022/05/05 12:14:22;;;;;;;;;;;19.60;99.90;;;;;;5065059;28;19921;-65
2022/05/05 12:16:49;;;;;;;;;;;19.80;99.90;;;;;;5065015;28;19921;-65
2022/05/05 12:19:17;;;;;;;;;;;20.00;99.90;;;;;;5065067;28;19920;-65
2022/05/05 12:21:54;;;;;;;;;;;19.90;99.90;;;;;;5064676;28;19965;-65
2022/05/05 12:24:23;;;;;;;;;;;20.10;99.90;;;;;;5065131;28;19970;-65
2022/05/05 12:27:11;;;;;;;;;;;20.10;99.90;;;;;;5064213;28;20019;-66
2022/05/05 12:29:40;;;;;;;;;;;20.20;99.90;;;;;;5061140;28;20208;-65
2022/05/05 12:32:10;;;;;;;;;;;20.10;99.90;;;;;;5064846;28;19927;-66
2022/05/05 12:34:37;;;;;;;;;;;20.10;99.90;;;;;;5065186;28;19921;-66
2022/05/05 12:37:14;;;;;;;;;;;19.90;99.90;;;;;;5064535;28;19963;-65
2022/05/05 12:39:55;;;;;;;;;;;19.80;99.90;;;;;;5064358;28;19921;-66
2022/05/05 12:42:22;;;;;;;;;;;19.60;99.90;;;;;;5064295;28;20204;-66
2022/05/05 12:44:51;;;;;;;;;;;19.40;99.90;;;;;;5064253;28;20262;-65
2022/05/05 12:47:24;;;;;;;;;;;19.30;99.90;;;;;;5064203;28;19988;-66
2022/05/05 12:49:52;;;;;;;;;;;19.20;99.90;;;;;;5064710;28;19921;-65
2022/05/05 13:00:50;;;;;;;;;;;19.10;99.90;;;;;;5044135;28;20231;-66
2022/05/05 13:03:18;;;;;;;;;;;18.90;99.90;;;;;;5043578;28;19921;-67
2022/05/05 13:05:46;;;;;;;;;;;18.90;99.90;;;;;;5043064;28;19921;-66
2022/05/05 13:08:12;;;;;;;;;;;18.90;99.90;;;;;;5044291;28;20089;-65
2022/05/05 13:10:39;;;;;;;;;;;18.90;99.90;;;;;;5043988;28;19921;-65
2022/05/05 13:13:05;;;;;;;;;;;18.80;99.90;;;;;;5044131;28;19927;-65
2022/05/05 13:15:32;;;;;;;;;;;18.80;99.90;;;;;;5043615;28;20132;-66
2022/05/05 13:18:00;;;;;;;;;;;18.90;99.90;;;;;;5044179;28;19952;-66
2022/05/05 13:20:26;;;;;;;;;;;19.00;99.90;;;;;;5043864;28;19921;-65
2022/05/05 13:22:53;;;;;;;;;;;19.10;99.90;;;;;;5044098;28;19944;-69
2022/05/05 13:25:20;;;;;;;;;;;19.00;99.90;;;;;;5043797;28;19921;-69
2022/05/05 13:27:46;;;;;;;;;;;18.90;99.90;;;;;;5043691;28;19984;-69
2022/05/05 13:30:13;;;;;;;;;;;18.90;99.90;;;;;;5043793;28;19988;-69
2022/05/05 13:32:40;;;;;;;;;;;18.80;99.90;;;;;;5043628;28;19927;-68
2022/05/05 13:35:10;;;;;;;;;;;18.60;99.90;;;;;;5043205;28;19928;-68
2022/05/05 13:37:37;;;;;;;;;;;18.40;99.90;;;;;;5043313;28;19921;-69
2022/05/05 13:40:06;;;;;;;;;;;18.30;99.90;;;;;;5043239;28;19940;-68
2022/05/05 13:42:35;;;;;;;;;;;18.20;99.90;;;;;;5043201;28;19921;-69
2022/05/05 13:45:02;;;;;;;;;;;18.20;99.90;;;;;;5043454;28;20147;-68
2022/05/05 13:47:28;;;;;;;;;;;18.00;99.90;;;;;;5043282;28;19921;-66
2022/05/05 13:49:55;;;;;;;;;;;18.00;99.90;;;;;;5043701;28;20258;-66
2022/05/05 13:52:23;;;;;;;;;;;17.90;99.90;;;;;;5043561;28;19928;-66
2022/05/05 13:54:49;;;;;;;;;;;17.80;99.90;;;;;;5043621;28;19945;-67
2022/05/05 13:57:16;;;;;;;;;;;17.70;99.90;;;;;;5043315;28;19921;-67
2022/05/05 13:59:44;;;;;;;;;;;17.70;99.90;;;;;;5043250;28;20201;-66
2022/05/05 14:02:11;;;;;;;;;;;17.60;99.90;;;;;;5043495;28;19988;-67
2022/05/05 14:04:37;;;;;;;;;;;17.50;99.90;;;;;;5043496;28;19921;-66
2022/05/05 14:07:04;;;;;;;;;;;17.40;99.90;;;;;;5061501;28;19921;-67
2022/05/05 14:12:16;;;;;;;;;;;17.40;99.90;;;;;;5063288;28;19967;-67
2022/05/05 14:14:44;;;;;;;;;;;17.40;99.90;;;;;;5064700;28;20216;-66
2022/05/05 14:17:11;;;;;;;;;;;17.40;99.90;;;;;;5066916;28;19928;-66
2022/05/05 14:19:38;;;;;;;;;;;17.40;99.90;;;;;;5067049;28;20120;-66
2022/05/05 14:22:04;;;;;;;;;;;17.40;99.90;;;;;;5047396;28;19924;-67
2022/05/05 14:24:33;;;;;;;;;;;17.30;99.90;;;;;;5047198;28;20120;-65
2022/05/05 14:27:01;;;;;;;;;;;17.30;99.90;;;;;;5047223;28;19963;-66
2022/05/05 14:29:27;;;;;;;;;;;17.30;99.90;;;;;;5047346;28;19921;-65
2022/05/05 14:31:55;;;;;;;;;;;17.30;99.90;;;;;;5047214;28;19928;-65
2022/05/05 14:34:22;;;;;;;;;;;17.40;99.90;;;;;;5046896;28;19928;-65
2022/05/05 14:36:48;;;;;;;;;;;17.60;99.90;;;;;;5046982;28;19927;-65
2022/05/05 14:39:15;;;;;;;;;;;17.90;99.90;;;;;;5056151;28;19924;-66
2022/05/05 14:41:43;;;;;;;;;;;18.30;99.90;;;;;;5066968;28;20203;-65
2022/05/05 14:44:09;;;;;;;;;;;18.80;99.90;;;;;;5066999;28;19944;-65
2022/05/05 14:46:36;;;;;;;;;;;19.20;99.90;;;;;;5066783;28;19920;-65
2022/05/05 14:49:03;;;;;;;;;;;19.20;99.90;;;;;;5066524;28;19920;-66
2022/05/05 14:51:29;;;;;;;;;;;19.50;99.90;;;;;;5066606;28;20200;-66
2022/05/05 14:53:57;;;;;;;;;;;19.60;99.90;;;;;;5066796;28;19921;-66
2022/05/05 14:56:24;;;;;;;;;;;19.70;99.90;;;;;;5066580;28;19948;-66
2022/05/05 14:58:51;;;;;;;;;;;19.90;99.90;;;;;;5056263;28;19921;-66
2022/05/05 15:01:20;;;;;;;;;;;20.40;99.90;;;;;;5058073;28;19924;-66
2022/05/05 15:03:47;;;;;;;;;;;20.80;99.90;;;;;;5066395;28;19921;-66
2022/05/05 15:06:15;;;;;;;;;;;21.30;99.90;;;;;;5066035;28;20113;-67
2022/05/05 15:08:42;;;;;;;;;;;21.60;99.90;;;;;;5058595;28;19984;-67